Isleton, California
Current Conditions -  °F | °C
As of 5:58 AM on Tuesday 27 Jan 2015 (Local Time) from KSUU Reporting Station
Haze Haze  
Wind Chill: 44°   Ceiling: Unl
Heat Index: 47°   Visibility: 6mi
Dew Point: 46°   Wind: 6mph
Humidity: 96%   Direction: 150°SSE
Pressure: 30.1"   Gusts: NA
Location:  38.16°N, 121.61°W
Report Text: KSUU 271358Z AUTO 15005KT 6SM BR CLR 08/08 A3010 RMK AO2 SLP200 T00840078 $
Loading
Personal Weather Stations






























Interactive Weather Map New forecast layout! Learn more

10-Day Weather Forecast

Advertisements
Track Severe Weather on mobile